Time;durP1;ratioP1;P1;durP2;ratioP2;P2;SDS_P1;SDS_P2;PMS_P1;PMS_P2;Temp;Humidity;BMP_temperature;BMP_pressure;BME280_temperature;BME280_humidity;BME280_pressure;Samples;Min_cycle;Max_cycle;Signal;HPM_P1;HPM_P2
2021/06/24 00:02:13;;;;;;;7.90;5.65;;;17.30;99.90;;;;;;4993940;28;20215;-83
2021/06/24 00:04:39;;;;;;;7.78;4.45;;;17.40;99.90;;;;;;4996103;28;20637;-80
2021/06/24 00:07:05;;;;;;;8.82;5.47;;;17.40;99.90;;;;;;4996367;28;20169;-81
2021/06/24 00:09:30;;;;;;;10.75;5.10;;;17.30;99.90;;;;;;4996247;28;20181;-80
2021/06/24 00:11:58;;;;;;;9.02;4.63;;;17.30;99.90;;;;;;4994746;28;20189;-83
2021/06/24 00:14:24;;;;;;;5.45;4.40;;;17.20;99.90;;;;;;4996079;28;20205;-82
2021/06/24 00:16:49;;;;;;;7.50;5.05;;;17.40;99.90;;;;;;4994796;28;20177;-83
2021/06/24 00:19:21;;;;;;;7.38;5.40;;;17.30;99.90;;;;;;4996305;28;20169;-82
2021/06/24 00:21:46;;;;;;;13.80;5.00;;;17.40;99.90;;;;;;4995000;28;20339;-82
2021/06/24 00:24:12;;;;;;;8.75;4.53;;;17.50;99.90;;;;;;4995651;28;20268;-82
2021/06/24 00:26:38;;;;;;;8.52;5.40;;;17.70;99.90;;;;;;4995842;28;20169;-82
2021/06/24 00:29:03;;;;;;;5.97;4.65;;;17.60;99.90;;;;;;4994386;28;20169;-82
2021/06/24 00:31:29;;;;;;;6.90;5.13;;;17.60;99.90;;;;;;4995849;28;20177;-82
2021/06/24 00:33:55;;;;;;;9.75;5.30;;;17.50;99.90;;;;;;4995896;28;20240;-83
2021/06/24 00:36:20;;;;;;;8.68;4.97;;;17.40;99.90;;;;;;4994814;28;20192;-83
2021/06/24 00:38:46;;;;;;;9.40;5.10;;;17.40;99.90;;;;;;4995774;28;20192;-81
2021/06/24 00:41:12;;;;;;;9.25;4.80;;;17.60;99.90;;;;;;4995569;28;20165;-82
2021/06/24 00:43:41;;;;;;;12.70;5.88;;;17.60;99.90;;;;;;4995522;28;20178;-81
2021/06/24 00:46:07;;;;;;;9.98;5.30;;;17.60;99.90;;;;;;4994138;28;20249;-81
2021/06/24 00:48:32;;;;;;;16.25;5.22;;;17.60;99.90;;;;;;4994254;28;20193;-80
2021/06/24 00:50:58;;;;;;;6.43;5.05;;;17.40;99.90;;;;;;4994442;28;20169;-80
2021/06/24 00:53:24;;;;;;;13.95;5.25;;;17.00;99.90;;;;;;4995290;28;20201;-81
2021/06/24 00:55:51;;;;;;;9.75;4.53;;;17.00;99.90;;;;;;4993923;28;20217;-80
2021/06/24 00:58:22;;;;;;;9.00;5.65;;;17.20;99.90;;;;;;4994087;28;20169;-81
2021/06/24 01:00:53;;;;;;;10.52;5.28;;;17.20;99.90;;;;;;4995857;28;20169;-81
2021/06/24 01:03:19;;;;;;;5.53;5.00;;;17.20;99.90;;;;;;4995291;28;20220;-81
2021/06/24 01:05:45;;;;;;;8.35;5.78;;;17.20;99.90;;;;;;4994659;28;20616;-81
2021/06/24 01:08:14;;;;;;;9.93;5.57;;;17.40;99.90;;;;;;4995414;28;20165;-82
2021/06/24 01:10:39;;;;;;;10.68;6.20;;;17.40;99.90;;;;;;4995288;28;20260;-80
2021/06/24 01:13:05;;;;;;;8.43;5.72;;;17.30;99.90;;;;;;4993763;28;20572;-81
2021/06/24 01:15:31;;;;;;;12.93;5.78;;;16.90;99.90;;;;;;4995146;28;20204;-81
2021/06/24 01:17:58;;;;;;;9.73;6.97;;;16.90;99.90;;;;;;4993798;28;20176;-81
2021/06/24 01:20:28;;;;;;;8.90;6.30;;;17.10;99.90;;;;;;4995036;28;20173;-80
2021/06/24 01:22:54;;;;;;;8.82;7.22;;;17.20;99.90;;;;;;4993711;28;20557;-81
2021/06/24 01:25:20;;;;;;;6.82;6.00;;;17.10;99.90;;;;;;4993705;28;20188;-81
2021/06/24 01:27:47;;;;;;;8.73;5.35;;;16.90;99.90;;;;;;4993787;28;20174;-80
2021/06/24 01:30:13;;;;;;;7.93;6.68;;;16.80;99.90;;;;;;4994563;28;20174;-81
2021/06/24 01:32:40;;;;;;;7.68;6.10;;;16.90;99.90;;;;;;4993359;28;20196;-81
2021/06/24 01:35:06;;;;;;;10.57;5.70;;;16.80;99.90;;;;;;4993565;28;20573;-80
2021/06/24 01:37:32;;;;;;;12.13;6.18;;;16.50;99.90;;;;;;4994864;28;20169;-80
2021/06/24 01:39:58;;;;;;;10.90;6.53;;;16.70;99.90;;;;;;4994637;28;20165;-82
2021/06/24 01:42:28;;;;;;;11.77;6.75;;;16.50;99.90;;;;;;4994186;28;20193;-81
2021/06/24 01:44:54;;;;;;;7.97;6.32;;;16.50;99.90;;;;;;4994600;28;20170;-81
2021/06/24 01:47:19;;;;;;;9.90;6.78;;;16.40;99.90;;;;;;4993337;28;20183;-82
2021/06/24 01:49:45;;;;;;;7.88;6.20;;;16.40;99.90;;;;;;4994574;28;20173;-82
2021/06/24 01:52:10;;;;;;;10.38;6.28;;;16.40;99.90;;;;;;4994472;28;20189;-82
2021/06/24 01:54:36;;;;;;;14.68;6.05;;;16.20;99.90;;;;;;4994168;28;20244;-81
2021/06/24 01:57:02;;;;;;;10.63;7.38;;;16.20;99.90;;;;;;4994393;28;20174;-81
2021/06/24 01:59:28;;;;;;;6.80;6.18;;;16.30;99.90;;;;;;4993072;28;20165;-81
2021/06/24 02:01:54;;;;;;;18.80;6.60;;;16.40;99.90;;;;;;4994261;28;20224;-81
2021/06/24 02:04:26;;;;;;;10.65;5.72;;;16.50;99.90;;;;;;4994198;28;20173;-81
2021/06/24 02:06:51;;;;;;;7.72;6.53;;;16.50;99.90;;;;;;4994145;28;20814;-81
2021/06/24 02:09:17;;;;;;;9.98;6.57;;;16.70;99.90;;;;;;4994040;28;20169;-82
2021/06/24 02:11:43;;;;;;;9.13;6.53;;;16.80;99.90;;;;;;4994231;28;20188;-81
2021/06/24 02:14:09;;;;;;;6.75;6.25;;;16.90;99.90;;;;;;4993746;28;20287;-82
2021/06/24 02:16:34;;;;;;;10.98;6.72;;;17.10;99.90;;;;;;4993929;28;20260;-82
2021/06/24 02:19:00;;;;;;;7.85;6.13;;;17.10;99.90;;;;;;4992863;28;20526;-82
2021/06/24 02:21:25;;;;;;;22.25;7.72;;;17.10;99.90;;;;;;4992905;28;20169;-82
2021/06/24 02:23:51;;;;;;;8.50;6.32;;;16.80;99.90;;;;;;4993735;28;20185;-81
2021/06/24 02:26:17;;;;;;;12.55;6.93;;;16.80;99.90;;;;;;4993887;28;20172;-81
2021/06/24 02:28:42;;;;;;;11.25;6.68;;;16.90;99.90;;;;;;4993960;28;20200;-81
2021/06/24 02:31:08;;;;;;;6.00;5.40;;;17.10;99.90;;;;;;4992742;28;20175;-81
2021/06/24 02:33:34;;;;;;;9.05;6.15;;;17.10;99.90;;;;;;4993764;28;20188;-81
2021/06/24 02:36:00;;;;;;;12.30;5.45;;;16.90;99.90;;;;;;4993736;28;20213;-82
2021/06/24 02:38:27;;;;;;;6.32;4.78;;;16.70;99.90;;;;;;4993527;28;20644;-82
2021/06/24 02:40:53;;;;;;;8.80;5.10;;;16.70;99.90;;;;;;4993586;28;20208;-82
2021/06/24 02:43:18;;;;;;;8.05;5.72;;;16.80;99.90;;;;;;4993755;28;20212;-81
2021/06/24 02:45:44;;;;;;;11.57;6.22;;;16.90;99.90;;;;;;4993586;28;20251;-81
2021/06/24 02:48:10;;;;;;;9.85;5.35;;;16.60;99.90;;;;;;4993513;28;20630;-81
2021/06/24 02:50:36;;;;;;;12.35;4.95;;;16.60;99.90;;;;;;4993690;28;20184;-81
2021/06/24 02:53:02;;;;;;;5.43;4.68;;;16.70;99.90;;;;;;4991974;28;20185;-81
2021/06/24 02:55:30;;;;;;;8.55;5.50;;;16.60;99.90;;;;;;4993017;28;20750;-81
2021/06/24 02:57:58;;;;;;;6.68;5.13;;;16.70;99.90;;;;;;4991765;28;20165;-80
2021/06/24 03:00:25;;;;;;;7.25;5.50;;;16.90;99.90;;;;;;4993308;28;20188;-80
2021/06/24 03:02:51;;;;;;;8.85;5.43;;;16.80;99.90;;;;;;4993344;28;20255;-81
2021/06/24 03:05:16;;;;;;;6.45;5.35;;;16.90;99.90;;;;;;4993526;28;20587;-81
2021/06/24 03:07:42;;;;;;;6.70;5.20;;;16.90;99.90;;;;;;4993452;28;20192;-80
2021/06/24 03:10:09;;;;;;;7.82;4.97;;;16.90;99.90;;;;;;4991688;28;20227;-80
2021/06/24 03:12:36;;;;;;;14.07;6.10;;;17.00;99.90;;;;;;4992506;28;20185;-80
2021/06/24 03:15:03;;;;;;;14.98;6.00;;;17.10;99.90;;;;;;4992042;28;20204;-81
2021/06/24 03:17:29;;;;;;;13.35;5.93;;;17.00;99.90;;;;;;4991925;28;20165;-80
2021/06/24 03:19:55;;;;;;;6.25;5.47;;;17.00;99.90;;;;;;4991961;28;20172;-81
2021/06/24 03:22:20;;;;;;;7.00;6.25;;;17.00;99.90;;;;;;4991687;28;20184;-80
2021/06/24 03:24:46;;;;;;;13.43;6.10;;;16.90;99.90;;;;;;4991792;28;20267;-80
2021/06/24 03:27:12;;;;;;;10.45;6.32;;;16.90;99.90;;;;;;4993033;28;20746;-83
2021/06/24 03:29:38;;;;;;;14.88;6.38;;;16.90;99.90;;;;;;4992832;28;20173;-81
2021/06/24 03:32:04;;;;;;;16.00;5.72;;;16.50;99.90;;;;;;4992871;28;20191;-82
2021/06/24 03:34:29;;;;;;;15.23;6.47;;;16.30;99.90;;;;;;4992783;28;20189;-81
2021/06/24 03:36:55;;;;;;;9.55;5.88;;;16.40;99.90;;;;;;4992716;28;20176;-81
2021/06/24 03:39:21;;;;;;;9.38;6.63;;;16.60;99.90;;;;;;4997201;28;20691;-81
2021/06/24 03:41:46;;;;;;;6.20;5.68;;;16.50;99.90;;;;;;4996748;28;20248;-82
2021/06/24 03:44:12;;;;;;;6.47;5.45;;;16.60;99.90;;;;;;4995754;28;20173;-81
2021/06/24 03:46:38;;;;;;;8.73;6.03;;;16.60;99.90;;;;;;4995653;28;20199;-82
2021/06/24 03:49:05;;;;;;;7.63;5.00;;;16.70;99.90;;;;;;4996378;28;20641;-81
2021/06/24 03:51:30;;;;;;;9.93;6.30;;;16.40;99.90;;;;;;4996512;28;20165;-81
2021/06/24 03:53:57;;;;;;;10.85;5.63;;;16.40;99.90;;;;;;4996758;28;20525;-81
2021/06/24 03:56:22;;;;;;;9.35;5.28;;;16.40;99.90;;;;;;4995337;28;20177;-81
2021/06/24 03:58:48;;;;;;;14.05;5.78;;;16.50;99.90;;;;;;4995313;28;20172;-81
2021/06/24 04:01:14;;;;;;;6.28;5.75;;;16.40;99.90;;;;;;4996254;28;20169;-81
2021/06/24 04:03:40;;;;;;;9.88;5.55;;;16.30;99.90;;;;;;4996265;28;20261;-83
2021/06/24 04:06:06;;;;;;;6.97;5.95;;;16.30;99.90;;;;;;4995370;28;20213;-80
2021/06/24 04:08:33;;;;;;;5.28;4.78;;;16.20;99.90;;;;;;4996301;28;20169;-80
2021/06/24 04:10:59;;;;;;;5.85;5.25;;;16.40;99.90;;;;;;4996009;28;20236;-81
2021/06/24 04:13:24;;;;;;;15.95;5.55;;;16.60;99.90;;;;;;4995684;28;20645;-80
2021/06/24 04:15:50;;;;;;;20.45;5.80;;;16.70;99.90;;;;;;4996368;28;20884;-82
2021/06/24 04:18:15;;;;;;;9.18;6.38;;;16.80;99.90;;;;;;4996305;28;20227;-81
2021/06/24 04:20:41;;;;;;;11.40;6.05;;;16.90;99.90;;;;;;4995802;28;20721;-81
2021/06/24 04:23:07;;;;;;;12.50;5.47;;;16.90;99.90;;;;;;4994588;28;20211;-81
2021/06/24 04:25:33;;;;;;;10.98;6.25;;;16.80;99.90;;;;;;4995126;28;20189;-82
2021/06/24 04:28:00;;;;;;;12.93;5.78;;;16.70;99.90;;;;;;4994613;28;20169;-82
2021/06/24 04:30:27;;;;;;;5.75;5.10;;;16.60;99.90;;;;;;4995887;28;20646;-81
2021/06/24 04:32:54;;;;;;;9.45;6.07;;;16.70;99.90;;;;;;4994301;28;20201;-81
2021/06/24 04:35:20;;;;;;;6.38;4.88;;;16.60;99.90;;;;;;4996075;28;20602;-82
2021/06/24 04:37:45;;;;;;;9.63;5.85;;;16.70;99.90;;;;;;4995719;28;20166;-81
2021/06/24 04:40:12;;;;;;;14.68;5.95;;;16.50;99.90;;;;;;4994568;28;20172;-81
2021/06/24 04:42:38;;;;;;;9.27;4.90;;;16.30;99.90;;;;;;4995553;28;20291;-81
2021/06/24 04:45:05;;;;;;;8.77;4.88;;;16.40;99.90;;;;;;4995196;28;20638;-82
2021/06/24 04:47:31;;;;;;;7.88;5.10;;;16.20;99.90;;;;;;4994984;28;20252;-81
2021/06/24 04:49:58;;;;;;;6.85;5.45;;;16.40;99.90;;;;;;4995673;28;20324;-82
2021/06/24 04:52:23;;;;;;;6.22;4.72;;;16.40;99.90;;;;;;4995512;28;20679;-81
2021/06/24 04:54:49;;;;;;;7.75;5.05;;;16.50;99.90;;;;;;4995531;28;20236;-81
2021/06/24 04:57:15;;;;;;;7.38;4.78;;;16.50;99.90;;;;;;4994239;28;20549;-81
2021/06/24 04:59:40;;;;;;;9.77;5.40;;;16.50;99.90;;;;;;4995645;28;20169;-82
2021/06/24 05:02:06;;;;;;;6.32;4.75;;;16.60;99.90;;;;;;4995655;28;20188;-82
2021/06/24 05:04:32;;;;;;;5.40;4.57;;;16.70;99.90;;;;;;4994028;28;20174;-81
2021/06/24 05:07:02;;;;;;;9.40;5.25;;;16.50;99.90;;;;;;4995126;28;20637;-82
2021/06/24 05:09:30;;;;;;;14.60;5.05;;;16.50;99.90;;;;;;4995260;28;20247;-82
2021/06/24 05:11:55;;;;;;;10.48;5.13;;;16.50;99.90;;;;;;4993672;28;20193;-81
2021/06/24 05:14:22;;;;;;;7.72;5.25;;;16.70;99.90;;;;;;4993756;28;20208;-81
2021/06/24 05:16:48;;;;;;;6.00;5.45;;;16.60;99.90;;;;;;4994634;28;20187;-82
2021/06/24 05:19:13;;;;;;;9.02;5.15;;;16.60;99.90;;;;;;4993797;28;20264;-81
2021/06/24 05:21:40;;;;;;;7.43;5.38;;;16.70;99.90;;;;;;4993472;28;20169;-82
2021/06/24 05:24:07;;;;;;;5.47;4.63;;;16.60;99.90;;;;;;4994296;28;20212;-80
2021/06/24 05:26:33;;;;;;;8.48;5.90;;;16.60;99.90;;;;;;4994853;28;20224;-81
2021/06/24 05:28:59;;;;;;;8.75;5.07;;;16.40;99.90;;;;;;4993190;28;20173;-81
2021/06/24 05:31:24;;;;;;;7.70;5.22;;;16.40;99.90;;;;;;4994168;28;20260;-80
2021/06/24 05:33:50;;;;;;;15.80;5.53;;;16.50;99.90;;;;;;4994623;28;20173;-81
2021/06/24 05:36:15;;;;;;;20.15;5.85;;;16.70;99.90;;;;;;4994698;28;20296;-81
2021/06/24 05:38:41;;;;;;;8.82;5.47;;;16.70;99.90;;;;;;4994450;28;20626;-81
2021/06/24 05:41:07;;;;;;;6.30;5.70;;;16.80;99.90;;;;;;4994741;28;20170;-81
2021/06/24 05:43:32;;;;;;;8.18;4.65;;;16.60;99.90;;;;;;4994406;28;20193;-82
2021/06/24 05:45:58;;;;;;;6.25;5.55;;;16.70;99.90;;;;;;4994420;28;20169;-81
2021/06/24 05:48:24;;;;;;;11.45;5.97;;;16.70;99.90;;;;;;4994436;28;20177;-81
2021/06/24 05:50:49;;;;;;;8.05;5.70;;;16.50;99.90;;;;;;4993240;28;20172;-81
2021/06/24 05:53:15;;;;;;;10.25;5.50;;;16.50;99.90;;;;;;4993014;28;20193;-82
2021/06/24 05:55:50;;;;;;;11.15;5.53;;;16.70;99.90;;;;;;4993877;28;20215;-84
2021/06/24 05:58:24;;;;;;;6.72;5.28;;;16.70;99.90;;;;;;4992760;28;20165;-82
2021/06/24 06:00:53;;;;;;;9.18;5.28;;;16.80;99.90;;;;;;4993316;28;20276;-81
2021/06/24 06:03:20;;;;;;;12.02;6.30;;;16.60;99.90;;;;;;4993799;28;20189;-81
2021/06/24 06:05:46;;;;;;;11.07;6.28;;;16.80;99.90;;;;;;4993656;28;20169;-81
2021/06/24 06:08:12;;;;;;;16.75;6.32;;;16.70;99.90;;;;;;4993501;28;20157;-81
2021/06/24 06:10:40;;;;;;;8.23;5.63;;;16.80;99.90;;;;;;4993546;28;20173;-81
2021/06/24 06:13:06;;;;;;;7.47;5.88;;;16.90;99.90;;;;;;4992192;28;20212;-81
2021/06/24 06:15:40;;;;;;;12.52;6.18;;;17.00;99.90;;;;;;4993311;28;20248;-80
2021/06/24 06:18:14;;;;;;;5.88;5.18;;;17.40;99.90;;;;;;4991907;28;20177;-80
2021/06/24 06:20:41;;;;;;;8.10;5.28;;;17.30;99.90;;;;;;4992461;28;20512;-81
2021/06/24 06:23:07;;;;;;;9.07;6.20;;;17.20;99.90;;;;;;4993281;28;20200;-81
2021/06/24 06:25:33;;;;;;;9.77;5.75;;;17.30;99.90;;;;;;4993851;28;20176;-80
2021/06/24 06:27:59;;;;;;;10.35;5.20;;;17.10;99.90;;;;;;4992109;28;20165;-84
2021/06/24 06:30:26;;;;;;;17.65;6.53;;;17.10;99.90;;;;;;4993088;28;20177;-81
2021/06/24 06:32:52;;;;;;;6.20;5.38;;;17.20;99.90;;;;;;4993399;28;20189;-84
2021/06/24 06:35:17;;;;;;;8.43;5.28;;;17.20;99.90;;;;;;4993600;28;20204;-83
2021/06/24 06:37:43;;;;;;;5.28;4.82;;;17.40;99.90;;;;;;4993328;28;20165;-82
2021/06/24 06:40:09;;;;;;;9.50;5.43;;;17.50;99.90;;;;;;4993363;28;20169;-82
2021/06/24 06:42:35;;;;;;;14.60;4.85;;;17.90;99.90;;;;;;4984829;28;20189;-84
2021/06/24 06:45:05;;;;;;;9.68;5.38;;;18.40;99.90;;;;;;4973901;28;20289;-83
2021/06/24 06:47:30;;;;;;;8.32;5.10;;;18.40;99.90;;;;;;4989272;28;20649;-82
2021/06/24 06:49:56;;;;;;;5.63;5.07;;;18.30;99.90;;;;;;4980393;28;20178;-80
2021/06/24 06:52:21;;;;;;;7.35;4.43;;;18.00;99.90;;;;;;4988172;28;20222;-82
2021/06/24 06:54:47;;;;;;;7.78;4.80;;;18.20;99.90;;;;;;4972087;28;20201;-80
2021/06/24 06:57:13;;;;;;;7.47;5.22;;;18.60;99.90;;;;;;4973637;28;20177;-79
2021/06/24 06:59:38;;;;;;;8.75;4.90;;;19.00;99.90;;;;;;4973651;28;20221;-81
2021/06/24 07:02:04;;;;;;;10.73;4.82;;;19.00;99.90;;;;;;4973541;28;20243;-82
2021/06/24 07:04:30;;;;;;;7.35;4.60;;;18.70;99.90;;;;;;4974007;28;20166;-80
2021/06/24 07:06:55;;;;;;;6.20;3.95;;;18.90;99.90;;;;;;4974133;28;20170;-82
2021/06/24 07:09:21;;;;;;;12.43;6.15;;;19.20;99.90;;;;;;4978049;28;20178;-83
2021/06/24 07:11:46;;;;;;;6.25;4.45;;;19.40;99.90;;;;;;4973005;28;20200;-84
2021/06/24 07:14:12;;;;;;;15.85;4.85;;;19.10;99.90;;;;;;4973881;28;20162;-82
2021/06/24 07:16:38;;;;;;;5.35;4.85;;;19.10;99.90;;;;;;4988435;28;20697;-82
2021/06/24 07:19:06;;;;;;;5.35;4.75;;;19.00;99.90;;;;;;4973723;28;20181;-82
2021/06/24 07:21:32;;;;;;;9.15;4.78;;;18.80;99.90;;;;;;4973193;28;20220;-80
2021/06/24 07:23:57;;;;;;;12.25;5.35;;;19.00;99.90;;;;;;4973156;28;20589;-81
2021/06/24 07:26:23;;;;;;;5.00;4.50;;;19.40;99.90;;;;;;4973365;28;20645;-81
2021/06/24 07:28:49;;;;;;;9.98;4.35;;;19.40;99.90;;;;;;4974707;28;20166;-80
2021/06/24 07:31:14;;;;;;;12.80;4.82;;;19.40;99.90;;;;;;4980927;28;20221;-81
2021/06/24 07:33:40;;;;;;;5.75;4.43;;;19.50;99.90;;;;;;4972527;28;20190;-82
2021/06/24 07:36:06;;;;;;;12.27;4.68;;;19.60;99.90;;;;;;4973687;28;20256;-83
2021/06/24 07:38:31;;;;;;;11.15;4.32;;;19.90;99.90;;;;;;4973859;28;20907;-82
2021/06/24 07:40:57;;;;;;;12.15;4.53;;;19.90;99.90;;;;;;4973414;28;20193;-80
2021/06/24 07:43:25;;;;;;;11.45;5.03;;;19.60;99.90;;;;;;4973734;28;20709;-81
2021/06/24 07:45:52;;;;;;;5.82;4.70;;;19.50;99.90;;;;;;4972773;28;20188;-81
2021/06/24 07:48:18;;;;;;;7.97;4.03;;;19.80;99.90;;;;;;4977244;28;20161;-80
2021/06/24 07:50:43;;;;;;;18.52;4.97;;;20.10;99.90;;;;;;4993017;28;20200;-81
2021/06/24 07:53:09;;;;;;;11.05;5.15;;;19.90;99.90;;;;;;4991156;28;20558;-80
2021/06/24 07:55:38;;;;;;;16.13;4.40;;;19.80;99.90;;;;;;4991589;28;20212;-81
2021/06/24 07:58:05;;;;;;;13.75;4.72;;;19.70;99.90;;;;;;4982355;28;20264;-80
2021/06/24 08:00:32;;;;;;;7.60;4.80;;;20.00;99.90;;;;;;4992894;28;20204;-80
2021/06/24 08:02:58;;;;;;;20.60;5.43;;;20.00;99.90;;;;;;4990632;28;20543;-80
2021/06/24 08:05:24;;;;;;;15.07;4.95;;;19.90;99.90;;;;;;4992439;28;20169;-80
2021/06/24 08:07:50;;;;;;;15.05;5.45;;;20.00;99.90;;;;;;4992059;28;20181;-81
2021/06/24 08:10:17;;;;;;;7.93;4.97;;;20.30;99.90;;;;;;4991421;28;20457;-80
2021/06/24 08:12:52;;;;;;;15.68;5.32;;;20.40;99.90;;;;;;4992259;28;20292;-81
2021/06/24 08:15:20;;;;;;;9.32;5.53;;;20.30;99.90;;;;;;4992717;28;20235;-81
2021/06/24 08:17:47;;;;;;;10.27;5.05;;;20.40;99.90;;;;;;4990389;28;20220;-81
2021/06/24 08:20:15;;;;;;;11.50;5.72;;;20.30;99.90;;;;;;4992937;28;20173;-82
2021/06/24 08:22:43;;;;;;;10.52;5.30;;;20.40;99.90;;;;;;4993455;28;20198;-81
2021/06/24 08:25:13;;;;;;;7.90;4.93;;;20.50;99.90;;;;;;4997419;28;20173;-83
2021/06/24 08:27:42;;;;;;;5.93;4.60;;;20.70;99.90;;;;;;4997268;28;20223;-86
2021/06/24 08:30:10;;;;;;;7.13;5.22;;;20.70;99.90;;;;;;4998714;28;20196;-86
2021/06/24 08:32:37;;;;;;;6.53;4.63;;;20.70;99.90;;;;;;4999077;28;20197;-89
2021/06/24 08:35:04;;;;;;;8.30;4.47;;;20.70;99.90;;;;;;5000718;28;20200;-87
2021/06/24 08:37:30;;;;;;;8.07;4.50;;;20.90;99.90;;;;;;4999722;28;20165;-87
2021/06/24 08:39:56;;;;;;;8.75;4.55;;;21.10;99.90;;;;;;4998982;28;20235;-85
2021/06/24 08:42:24;;;;;;;13.85;5.35;;;20.80;99.90;;;;;;4998501;28;20197;-84
2021/06/24 08:44:50;;;;;;;7.65;5.28;;;20.50;99.90;;;;;;4995393;28;20177;-83
2021/06/24 08:47:16;;;;;;;7.13;4.88;;;20.50;99.90;;;;;;4996624;28;20300;-84
2021/06/24 08:49:42;;;;;;;8.40;4.85;;;20.60;99.90;;;;;;4997450;28;20653;-86
2021/06/24 08:52:09;;;;;;;10.43;5.05;;;20.40;99.90;;;;;;5008246;28;20188;-85
2021/06/24 08:54:37;;;;;;;10.30;5.25;;;20.60;99.90;;;;;;4992125;28;20237;-84
2021/06/24 08:57:14;;;;;;;8.32;4.90;;;21.20;99.90;;;;;;4979300;28;20178;-82
2021/06/24 08:59:46;;;;;;;7.47;4.60;;;21.50;99.90;;;;;;4976568;28;20264;-84
2021/06/24 09:02:14;;;;;;;13.93;5.28;;;21.80;99.90;;;;;;4987238;28;20193;-82
2021/06/24 09:04:55;;;;;;;;;;;;;;;;;;;;;
2021/06/24 09:07:22;;;;;;;6.15;4.78;;;21.80;99.90;;;;;;4976166;28;20283;-83
2021/06/24 09:09:56;;;;;;;9.23;4.75;;;21.70;99.90;;;;;;5009926;28;20181;-82
2021/06/24 09:13:39;;;;;;;;;;;;;;;;;;;;;
2021/06/24 09:16:20;;;;;;;7.20;5.00;;;22.00;99.90;;;;;;4951644;28;20708;-83
2021/06/24 09:22:16;;;;;;;14.57;6.45;;;21.80;99.90;;;;;;4949787;28;20294;-83
2021/06/24 09:24:58;;;;;;;10.93;5.60;;;21.40;99.90;;;;;;4961384;28;20688;-81
2021/06/24 09:27:31;;;;;;;8.98;6.28;;;21.20;99.90;;;;;;4972233;28;20178;-81
2021/06/24 09:30:30;;;;;;;11.05;5.93;;;21.30;99.90;;;;;;4972123;28;20661;-84
2021/06/24 09:32:56;;;;;;;14.27;6.78;;;21.40;99.90;;;;;;4971993;28;20212;-83
2021/06/24 09:35:29;;;;;;;12.23;6.20;;;21.30;99.90;;;;;;5006374;28;20211;-83
2021/06/24 09:38:18;;;;;;;15.45;6.05;;;21.40;99.90;;;;;;5029587;28;20181;-83
2021/06/24 09:40:59;;;;;;;11.65;5.43;;;21.20;99.90;;;;;;5013268;28;20169;-82
2021/06/24 09:43:47;;;;;;;;;;;;;;;;;;;;;
2021/06/24 09:46:48;;;;;;;;;;;;;;;;;;;;;
2021/06/24 09:49:34;;;;;;;5.57;4.70;;;21.40;99.90;;;;;;4972937;28;20200;-83
2021/06/24 09:52:03;;;;;;;10.75;5.28;;;21.50;99.90;;;;;;4982267;28;20676;-86
2021/06/24 09:54:43;;;;;;;6.05;5.40;;;21.50;99.90;;;;;;4993451;28;20212;-85
2021/06/24 09:57:20;;;;;;;16.00;5.40;;;21.40;99.90;;;;;;4994101;28;20626;-84
2021/06/24 09:59:46;;;;;;;9.93;5.55;;;21.90;99.90;;;;;;4993906;28;20576;-86
2021/06/24 10:02:15;;;;;;;6.85;5.60;;;22.30;99.90;;;;;;4991448;28;20189;-84
2021/06/24 10:04:45;;;;;;;11.18;5.70;;;22.20;99.90;;;;;;4992937;28;20205;-86
2021/06/24 10:07:14;;;;;;;12.63;5.82;;;21.90;99.90;;;;;;4995230;28;20169;-85
2021/06/24 10:09:42;;;;;;;9.27;5.45;;;21.30;99.90;;;;;;4994451;28;20173;-85
2021/06/24 10:12:10;;;;;;;8.30;5.78;;;21.40;99.90;;;;;;4995995;28;20185;-87
2021/06/24 10:14:37;;;;;;;10.93;5.47;;;21.50;99.90;;;;;;4995033;28;20205;-85
2021/06/24 10:17:12;;;;;;;9.57;5.88;;;21.60;99.90;;;;;;4996278;28;20209;-86
2021/06/24 10:19:40;;;;;;;7.03;5.68;;;21.80;99.90;;;;;;4995253;28;20204;-87
2021/06/24 10:22:11;;;;;;;18.67;7.20;;;21.90;99.90;;;;;;4994990;28;20288;-87
2021/06/24 10:25:03;;;;;;;11.07;7.38;;;21.90;99.90;;;;;;4995328;28;20187;-87
2021/06/24 10:27:37;;;;;;;12.25;7.20;;;22.20;99.90;;;;;;4991848;28;20185;-86
2021/06/24 10:30:14;;;;;;;10.63;8.07;;;22.40;99.90;;;;;;4996249;28;20180;-87
2021/06/24 10:32:55;;;;;;;10.73;7.30;;;22.80;99.90;;;;;;5012504;28;20189;-87
2021/06/24 10:35:44;;;;;;;10.20;7.38;;;23.00;99.90;;;;;;5012456;28;20216;-87
2021/06/24 10:38:12;;;;;;;10.70;7.40;;;22.40;99.90;;;;;;5011991;28;20242;-86
2021/06/24 10:40:40;;;;;;;12.20;10.32;;;22.00;99.90;;;;;;4994312;28;20534;-86
2021/06/24 10:43:13;;;;;;;17.05;11.15;;;22.20;99.90;;;;;;4997077;28;20193;-87
2021/06/24 10:45:40;;;;;;;16.33;12.27;;;21.80;99.90;;;;;;4996204;28;20173;-88
2021/06/24 10:48:24;;;;;;;13.57;12.15;;;21.40;99.90;;;;;;4997741;28;20614;-87
2021/06/24 10:50:57;;;;;;;14.43;12.77;;;21.40;99.90;;;;;;5012991;28;20200;-88
2021/06/24 10:53:22;;;;;;;16.60;14.05;;;21.60;99.90;;;;;;5012453;28;20239;-85
2021/06/24 10:55:51;;;;;;;16.33;12.38;;;21.70;99.90;;;;;;5010666;28;20208;-83
2021/06/24 10:58:20;;;;;;;17.65;12.63;;;21.70;99.90;;;;;;4993768;28;20636;-80
2021/06/24 11:00:50;;;;;;;13.07;11.65;;;21.30;99.90;;;;;;4994353;28;20168;-80
2021/06/24 11:03:27;;;;;;;17.75;11.48;;;21.60;99.90;;;;;;4992125;28;20299;-80
2021/06/24 11:05:56;;;;;;;22.38;12.55;;;21.50;99.90;;;;;;4993255;28;20179;-80
2021/06/24 11:08:31;;;;;;;16.25;12.32;;;21.50;99.90;;;;;;4993470;28;20603;-81
2021/06/24 11:11:13;;;;;;;10.88;9.73;;;21.60;99.90;;;;;;4993651;28;20625;-81
2021/06/24 11:13:48;;;;;;;17.55;11.48;;;21.10;99.90;;;;;;4993366;28;20184;-82
2021/06/24 11:16:13;;;;;;;11.05;9.40;;;21.00;99.90;;;;;;4993751;28;20817;-81
2021/06/24 11:18:45;;;;;;;13.80;9.80;;;21.00;99.90;;;;;;5008612;28;20165;-82
2021/06/24 11:21:23;;;;;;;15.90;8.40;;;20.90;99.90;;;;;;4994065;28;20173;-82
2021/06/24 11:23:55;;;;;;;18.33;11.00;;;20.80;99.90;;;;;;4992628;28;20211;-85
2021/06/24 11:26:29;;;;;;;9.82;8.98;;;20.90;99.90;;;;;;4994946;28;20174;-83
2021/06/24 11:29:19;;;;;;;10.55;9.57;;;21.00;99.90;;;;;;5010132;28;20181;-83
2021/06/24 11:32:00;;;;;;;13.25;10.35;;;20.80;99.90;;;;;;4994963;28;20181;-82
2021/06/24 11:34:41;;;;;;;16.85;10.60;;;20.70;99.90;;;;;;4995709;28;20173;-82
2021/06/24 11:37:13;;;;;;;12.65;10.15;;;21.10;99.90;;;;;;4995724;28;20315;-81
2021/06/24 11:39:48;;;;;;;12.90;10.85;;;21.60;99.90;;;;;;4993768;28;20630;-84
2021/06/24 11:42:21;;;;;;;12.05;10.55;;;21.70;99.90;;;;;;4994583;28;20286;-88
2021/06/24 11:44:49;;;;;;;11.93;9.95;;;21.80;99.90;;;;;;4994589;28;20165;-84
2021/06/24 11:47:22;;;;;;;13.70;10.60;;;21.60;99.90;;;;;;4994402;28;20256;-83
2021/06/24 12:04:09;;;;;;;16.60;11.68;;;22.30;99.90;;;;;;4999914;28;20177;-84
2021/06/24 12:06:56;;;;;;;13.50;10.93;;;22.10;99.90;;;;;;4997424;28;20227;-84
2021/06/24 12:09:24;;;;;;;19.08;10.57;;;21.90;99.90;;;;;;4996507;28;20701;-82
2021/06/24 12:11:55;;;;;;;12.10;10.88;;;21.90;99.90;;;;;;4996104;28;20192;-83
2021/06/24 12:14:31;;;;;;;10.85;9.82;;;22.30;99.90;;;;;;4995774;28;20181;-82
2021/06/24 12:17:28;;;;;;;20.60;12.40;;;22.20;99.90;;;;;;4995597;28;20187;-83
2021/06/24 12:20:20;;;;;;;22.35;11.38;;;22.00;99.90;;;;;;4996697;28;20277;-82
2021/06/24 12:22:59;;;;;;;12.35;10.70;;;22.20;99.90;;;;;;4995679;28;20649;-82
2021/06/24 12:25:27;;;;;;;15.15;10.65;;;22.10;99.90;;;;;;4997119;28;20173;-83
2021/06/24 12:27:58;;;;;;;10.68;9.60;;;22.30;99.90;;;;;;4999045;28;20219;-83
2021/06/24 12:30:41;;;;;;;12.75;9.82;;;22.40;99.90;;;;;;4997112;28;20185;-82
2021/06/24 12:33:09;;;;;;;13.20;9.73;;;22.40;99.90;;;;;;4997196;28;20197;-82
2021/06/24 12:35:37;;;;;;;10.43;8.20;;;22.20;99.90;;;;;;4997300;28;20245;-83
2021/06/24 12:38:10;;;;;;;10.60;8.90;;;22.00;99.90;;;;;;4997140;28;20633;-83
2021/06/24 12:40:40;;;;;;;14.23;9.45;;;21.90;99.90;;;;;;4996076;28;20687;-81
2021/06/24 12:43:07;;;;;;;20.73;9.50;;;21.70;99.90;;;;;;4996265;28;20200;-83
2021/06/24 12:45:37;;;;;;;21.85;11.65;;;21.80;99.90;;;;;;4996792;28;20572;-83
2021/06/24 12:48:05;;;;;;;13.05;11.88;;;21.80;99.90;;;;;;4996561;28;20196;-83
2021/06/24 12:50:33;;;;;;;16.42;14.57;;;22.00;99.90;;;;;;4980012;28;20173;-83
2021/06/24 12:53:04;;;;;;;20.13;15.23;;;21.70;99.90;;;;;;4995895;28;20213;-91
2021/06/24 12:55:39;;;;;;;17.77;15.55;;;21.70;99.90;;;;;;4995532;28;20217;-82
2021/06/24 12:58:12;;;;;;;17.67;15.82;;;21.80;99.90;;;;;;5011574;28;20176;-82
2021/06/24 13:00:40;;;;;;;21.67;14.75;;;21.70;99.90;;;;;;4994788;28;20650;-82
2021/06/24 13:03:07;;;;;;;18.77;15.27;;;21.60;99.90;;;;;;4978256;28;20189;-84
2021/06/24 13:05:34;;;;;;;21.85;15.55;;;21.20;99.90;;;;;;4995752;28;20219;-82
2021/06/24 13:08:05;;;;;;;30.50;15.73;;;21.40;99.90;;;;;;4995797;28;20212;-84
2021/06/24 13:10:43;;;;;;;19.33;13.18;;;21.50;99.90;;;;;;4994366;28;20235;-80
2021/06/24 13:13:09;;;;;;;19.90;14.20;;;21.30;99.90;;;;;;4994751;28;20177;-80